ウランバートル の空港の天気 - METARとTAF

チンギスハーン国際空港 ( ZMUB / ULN ) - モンゴル ウランバートル
飛行場実況気象(Metar)
観測時間10/20 11:00 ULAT (10/20 03:00 UTC)
風向・風速不定 1m/s
視程10km以上
天気現象
なし
気温4℃
湿度56%
気圧1022hPa
METARZMUB 200300Z VRB01MPS CAVOK 04/M04 Q1022 NOSIG RMK QFE658.5 56
過去の天気等 Google飛行場航空写真 Wunderground天気予報

過去48時間のMETAR

飛行場予報(TAF)
発表時間: 10/20 06:40 ULAT (10/19 22:40 UTC)
予報対象時間: 20日8時 ULAT ~ 21日14時 ULAT
風向・風速不定 2m/s
視程6,000m
全天の4割程度の雲 雲底高度 3,050m
20日12時 ULAT ~ 20日14時 ULAT に徐々に
視程10km以上
天気現象運行に影響にある天気現象が終了
全天の4割程度の雲 雲底高度 1,010m
全天の4割程度の雲 雲底高度 3,050m
20日20時 ULAT ~ 21日14時 ULAT に一時的に
視程6,000m
天気現象弱い雪雨
全天の4割程度の雲 雲底高度 910m
全天の4割程度の雲 雲底高度 2,440m
TAF ZMUB 192240Z 2000/2106 VRB02MPS 6000 SCT100 TX07/2007Z TNM08/2022Z
BECMG 2004/2006 9999 NSW SCT033 SCT100
TEMPO 2012/2106 6000 -SNRA SCT030 SCT080